sensor_id;sensor_type;location;lat;lon;timestamp;temperature;humidity
15013;DHT22;7603;49.432;11.418;2023-04-24T00:01:51;9.60;99.90
15013;DHT22;7603;49.432;11.418;2023-04-24T00:04:17;9.60;99.90
15013;DHT22;7603;49.432;11.418;2023-04-24T00:06:43;9.50;99.90
15013;DHT22;7603;49.432;11.418;2023-04-24T00:09:09;9.40;99.90
15013;DHT22;7603;49.432;11.418;2023-04-24T00:11:36;9.40;99.90
15013;DHT22;7603;49.432;11.418;2023-04-24T00:14:01;9.40;99.90
15013;DHT22;7603;49.432;11.418;2023-04-24T00:16:27;9.30;99.90
15013;DHT22;7603;49.432;11.418;2023-04-24T00:18:53;9.30;99.90
15013;DHT22;7603;49.432;11.418;2023-04-24T00:21:19;9.30;99.90
15013;DHT22;7603;49.432;11.418;2023-04-24T00:23:44;9.20;99.90
15013;DHT22;7603;49.432;11.418;2023-04-24T00:26:10;9.30;99.90
15013;DHT22;7603;49.432;11.418;2023-04-24T00:28:36;9.20;99.90
15013;DHT22;7603;49.432;11.418;2023-04-24T00:31:02;9.20;99.90
15013;DHT22;7603;49.432;11.418;2023-04-24T00:33:27;9.10;99.90
15013;DHT22;7603;49.432;11.418;2023-04-24T00:35:53;9.10;99.90
15013;DHT22;7603;49.432;11.418;2023-04-24T00:38:18;9.10;99.90
15013;DHT22;7603;49.432;11.418;2023-04-24T00:40:44;9.10;99.90
15013;DHT22;7603;49.432;11.418;2023-04-24T00:43:10;9.10;99.90
15013;DHT22;7603;49.432;11.418;2023-04-24T00:45:36;9.00;99.90
15013;DHT22;7603;49.432;11.418;2023-04-24T00:48:02;9.00;99.90
15013;DHT22;7603;49.432;11.418;2023-04-24T00:50:28;9.00;99.90
15013;DHT22;7603;49.432;11.418;2023-04-24T00:52:54;8.90;99.90
15013;DHT22;7603;49.432;11.418;2023-04-24T00:55:20;8.90;99.90
15013;DHT22;7603;49.432;11.418;2023-04-24T00:57:46;8.90;99.90
15013;DHT22;7603;49.432;11.418;2023-04-24T01:00:14;9.00;99.90
15013;DHT22;7603;49.432;11.418;2023-04-24T01:02:40;9.00;99.90
15013;DHT22;7603;49.432;11.418;2023-04-24T01:05:09;9.00;99.90
15013;DHT22;7603;49.432;11.418;2023-04-24T01:07:35;9.00;99.90
15013;DHT22;7603;49.432;11.418;2023-04-24T01:10:01;8.90;99.90
15013;DHT22;7603;49.432;11.418;2023-04-24T01:12:27;9.00;99.90
15013;DHT22;7603;49.432;11.418;2023-04-24T01:14:53;9.00;99.90
15013;DHT22;7603;49.432;11.418;2023-04-24T01:17:19;9.00;99.90
15013;DHT22;7603;49.432;11.418;2023-04-24T01:19:46;9.00;99.90
15013;DHT22;7603;49.432;11.418;2023-04-24T01:22:14;9.00;99.90
15013;DHT22;7603;49.432;11.418;2023-04-24T01:24:40;9.00;99.90
15013;DHT22;7603;49.432;11.418;2023-04-24T01:27:07;8.90;99.90
15013;DHT22;7603;49.432;11.418;2023-04-24T01:29:34;8.90;99.90
15013;DHT22;7603;49.432;11.418;2023-04-24T01:32:00;8.80;99.90
15013;DHT22;7603;49.432;11.418;2023-04-24T01:34:25;8.70;99.90
15013;DHT22;7603;49.432;11.418;2023-04-24T01:36:51;8.70;99.90
15013;DHT22;7603;49.432;11.418;2023-04-24T01:39:17;8.70;99.90
15013;DHT22;7603;49.432;11.418;2023-04-24T01:41:42;8.70;99.90
15013;DHT22;7603;49.432;11.418;2023-04-24T01:44:08;8.60;99.90
15013;DHT22;7603;49.432;11.418;2023-04-24T01:46:33;8.60;99.90
15013;DHT22;7603;49.432;11.418;2023-04-24T01:49:01;8.60;99.90
15013;DHT22;7603;49.432;11.418;2023-04-24T01:51:27;8.50;99.90
15013;DHT22;7603;49.432;11.418;2023-04-24T01:53:53;8.50;99.90
15013;DHT22;7603;49.432;11.418;2023-04-24T01:56:20;8.60;99.90
15013;DHT22;7603;49.432;11.418;2023-04-24T01:58:47;8.60;99.90
15013;DHT22;7603;49.432;11.418;2023-04-24T02:01:23;8.60;99.90
15013;DHT22;7603;49.432;11.418;2023-04-24T02:03:49;8.60;99.90
15013;DHT22;7603;49.432;11.418;2023-04-24T02:06:14;8.60;99.90
15013;DHT22;7603;49.432;11.418;2023-04-24T02:08:40;8.60;99.90
15013;DHT22;7603;49.432;11.418;2023-04-24T02:11:06;8.60;99.90
15013;DHT22;7603;49.432;11.418;2023-04-24T02:13:32;8.70;99.90
15013;DHT22;7603;49.432;11.418;2023-04-24T02:16:00;8.70;99.90
15013;DHT22;7603;49.432;11.418;2023-04-24T02:18:26;8.70;99.90
15013;DHT22;7603;49.432;11.418;2023-04-24T02:20:51;8.70;99.90
15013;DHT22;7603;49.432;11.418;2023-04-24T02:23:17;8.70;99.90
15013;DHT22;7603;49.432;11.418;2023-04-24T02:25:42;8.80;99.90
15013;DHT22;7603;49.432;11.418;2023-04-24T02:28:08;8.80;99.90
15013;DHT22;7603;49.432;11.418;2023-04-24T02:30:33;8.80;99.90
15013;DHT22;7603;49.432;11.418;2023-04-24T02:32:59;8.80;99.90
15013;DHT22;7603;49.432;11.418;2023-04-24T02:35:25;8.90;99.90
15013;DHT22;7603;49.432;11.418;2023-04-24T02:37:50;8.80;99.90
15013;DHT22;7603;49.432;11.418;2023-04-24T02:40:16;8.80;99.90
15013;DHT22;7603;49.432;11.418;2023-04-24T02:42:41;8.80;99.90
15013;DHT22;7603;49.432;11.418;2023-04-24T02:45:07;8.90;99.90
15013;DHT22;7603;49.432;11.418;2023-04-24T02:47:33;8.90;99.90
15013;DHT22;7603;49.432;11.418;2023-04-24T02:49:58;8.80;99.90
15013;DHT22;7603;49.432;11.418;2023-04-24T02:52:24;8.80;99.90
15013;DHT22;7603;49.432;11.418;2023-04-24T02:54:50;8.70;99.90
15013;DHT22;7603;49.432;11.418;2023-04-24T02:57:15;8.70;99.90
15013;DHT22;7603;49.432;11.418;2023-04-24T02:59:41;8.70;99.90
15013;DHT22;7603;49.432;11.418;2023-04-24T03:02:06;8.60;99.90
15013;DHT22;7603;49.432;11.418;2023-04-24T03:04:32;8.60;99.90
15013;DHT22;7603;49.432;11.418;2023-04-24T03:06:57;8.60;99.90
15013;DHT22;7603;49.432;11.418;2023-04-24T03:09:24;8.60;99.90
15013;DHT22;7603;49.432;11.418;2023-04-24T03:11:50;8.60;99.90
15013;DHT22;7603;49.432;11.418;2023-04-24T03:14:16;8.60;99.90
15013;DHT22;7603;49.432;11.418;2023-04-24T03:16:42;8.60;99.90
15013;DHT22;7603;49.432;11.418;2023-04-24T03:19:07;8.60;99.90
15013;DHT22;7603;49.432;11.418;2023-04-24T03:21:33;8.60;99.90
15013;DHT22;7603;49.432;11.418;2023-04-24T03:23:58;8.60;99.90
15013;DHT22;7603;49.432;11.418;2023-04-24T03:26:24;8.60;99.90
15013;DHT22;7603;49.432;11.418;2023-04-24T03:28:50;8.60;99.90
15013;DHT22;7603;49.432;11.418;2023-04-24T03:31:15;8.60;99.90
15013;DHT22;7603;49.432;11.418;2023-04-24T03:33:42;8.70;99.90
15013;DHT22;7603;49.432;11.418;2023-04-24T03:36:07;8.70;99.90
15013;DHT22;7603;49.432;11.418;2023-04-24T03:38:33;8.70;99.90
15013;DHT22;7603;49.432;11.418;2023-04-24T03:40:58;8.70;99.90
15013;DHT22;7603;49.432;11.418;2023-04-24T03:43:25;8.70;99.90
15013;DHT22;7603;49.432;11.418;2023-04-24T03:45:52;8.80;99.90
15013;DHT22;7603;49.432;11.418;2023-04-24T03:48:18;8.80;99.90
15013;DHT22;7603;49.432;11.418;2023-04-24T03:50:43;8.80;99.90
15013;DHT22;7603;49.432;11.418;2023-04-24T03:53:09;8.80;99.90
15013;DHT22;7603;49.432;11.418;2023-04-24T03:55:34;8.80;99.90
15013;DHT22;7603;49.432;11.418;2023-04-24T03:58:00;8.80;99.90
15013;DHT22;7603;49.432;11.418;2023-04-24T04:00:26;8.90;99.90
15013;DHT22;7603;49.432;11.418;2023-04-24T04:02:51;8.90;99.90
15013;DHT22;7603;49.432;11.418;2023-04-24T04:05:17;8.90;99.90
15013;DHT22;7603;49.432;11.418;2023-04-24T04:07:42;8.90;99.90
15013;DHT22;7603;49.432;11.418;2023-04-24T04:10:08;9.00;99.90
15013;DHT22;7603;49.432;11.418;2023-04-24T04:12:33;8.90;99.90
15013;DHT22;7603;49.432;11.418;2023-04-24T04:14:59;8.90;99.90
15013;DHT22;7603;49.432;11.418;2023-04-24T04:17:25;8.90;99.90
15013;DHT22;7603;49.432;11.418;2023-04-24T04:19:50;8.80;99.90
15013;DHT22;7603;49.432;11.418;2023-04-24T04:22:16;8.90;99.90
15013;DHT22;7603;49.432;11.418;2023-04-24T04:24:41;8.90;99.90
15013;DHT22;7603;49.432;11.418;2023-04-24T04:27:08;8.90;99.90
15013;DHT22;7603;49.432;11.418;2023-04-24T04:29:34;8.80;99.90
15013;DHT22;7603;49.432;11.418;2023-04-24T04:32:00;8.80;99.90
15013;DHT22;7603;49.432;11.418;2023-04-24T04:34:26;8.80;99.90
15013;DHT22;7603;49.432;11.418;2023-04-24T04:36:52;8.80;99.90
15013;DHT22;7603;49.432;11.418;2023-04-24T04:39:18;8.70;99.90
15013;DHT22;7603;49.432;11.418;2023-04-24T04:41:44;8.80;99.90
15013;DHT22;7603;49.432;11.418;2023-04-24T04:44:11;8.70;99.90
15013;DHT22;7603;49.432;11.418;2023-04-24T04:46:37;8.70;99.90
15013;DHT22;7603;49.432;11.418;2023-04-24T04:49:03;8.70;99.90
15013;DHT22;7603;49.432;11.418;2023-04-24T04:51:29;8.80;99.90
15013;DHT22;7603;49.432;11.418;2023-04-24T04:53:55;8.80;99.90
15013;DHT22;7603;49.432;11.418;2023-04-24T04:56:20;8.80;99.90
15013;DHT22;7603;49.432;11.418;2023-04-24T04:58:47;8.90;99.90
15013;DHT22;7603;49.432;11.418;2023-04-24T05:01:12;9.00;99.90
15013;DHT22;7603;49.432;11.418;2023-04-24T05:03:38;9.20;99.90
15013;DHT22;7603;49.432;11.418;2023-04-24T05:06:04;9.20;99.90
15013;DHT22;7603;49.432;11.418;2023-04-24T05:08:29;9.20;99.90
15013;DHT22;7603;49.432;11.418;2023-04-24T05:10:55;9.30;99.90
15013;DHT22;7603;49.432;11.418;2023-04-24T05:13:21;9.40;99.90
15013;DHT22;7603;49.432;11.418;2023-04-24T05:15:46;9.50;99.90
15013;DHT22;7603;49.432;11.418;2023-04-24T05:18:12;9.60;99.90
15013;DHT22;7603;49.432;11.418;2023-04-24T05:20:37;9.60;99.90
15013;DHT22;7603;49.432;11.418;2023-04-24T05:23:03;9.70;99.90
15013;DHT22;7603;49.432;11.418;2023-04-24T05:25:29;9.70;99.90
15013;DHT22;7603;49.432;11.418;2023-04-24T05:27:54;9.90;99.90
15013;DHT22;7603;49.432;11.418;2023-04-24T05:30:20;9.90;99.90
15013;DHT22;7603;49.432;11.418;2023-04-24T05:32:45;9.90;99.90
15013;DHT22;7603;49.432;11.418;2023-04-24T05:35:11;10.00;99.90
15013;DHT22;7603;49.432;11.418;2023-04-24T05:37:37;10.00;99.90
15013;DHT22;7603;49.432;11.418;2023-04-24T05:40:03;10.10;99.90
15013;DHT22;7603;49.432;11.418;2023-04-24T05:44:58;10.20;99.90
15013;DHT22;7603;49.432;11.418;2023-04-24T05:47:24;10.30;99.90
15013;DHT22;7603;49.432;11.418;2023-04-24T05:49:49;10.40;99.90
15013;DHT22;7603;49.432;11.418;2023-04-24T05:52:15;10.50;99.90
15013;DHT22;7603;49.432;11.418;2023-04-24T05:54:40;10.50;99.90
15013;DHT22;7603;49.432;11.418;2023-04-24T05:57:06;10.50;99.90
15013;DHT22;7603;49.432;11.418;2023-04-24T05:59:37;10.50;99.90
15013;DHT22;7603;49.432;11.418;2023-04-24T06:02:07;10.50;99.90
15013;DHT22;7603;49.432;11.418;2023-04-24T06:04:32;10.50;99.90
15013;DHT22;7603;49.432;11.418;2023-04-24T06:06:59;10.50;99.90
15013;DHT22;7603;49.432;11.418;2023-04-24T06:09:25;10.60;99.90
15013;DHT22;7603;49.432;11.418;2023-04-24T06:11:51;10.70;99.90
15013;DHT22;7603;49.432;11.418;2023-04-24T06:14:20;10.60;99.90
15013;DHT22;7603;49.432;11.418;2023-04-24T06:16:46;10.70;99.90
15013;DHT22;7603;49.432;11.418;2023-04-24T06:19:12;10.70;99.90
15013;DHT22;7603;49.432;11.418;2023-04-24T06:21:37;10.80;99.90
15013;DHT22;7603;49.432;11.418;2023-04-24T06:24:03;10.80;99.90
15013;DHT22;7603;49.432;11.418;2023-04-24T06:26:29;10.90;99.90
15013;DHT22;7603;49.432;11.418;2023-04-24T06:28:55;11.00;99.90
15013;DHT22;7603;49.432;11.418;2023-04-24T06:31:20;11.00;99.90
15013;DHT22;7603;49.432;11.418;2023-04-24T06:33:47;11.00;99.90
15013;DHT22;7603;49.432;11.418;2023-04-24T06:36:13;11.10;99.90
15013;DHT22;7603;49.432;11.418;2023-04-24T06:38:38;11.30;99.90
15013;DHT22;7603;49.432;11.418;2023-04-24T06:41:04;11.50;99.90
15013;DHT22;7603;49.432;11.418;2023-04-24T06:43:31;11.60;99.90
15013;DHT22;7603;49.432;11.418;2023-04-24T06:45:57;11.70;99.90
15013;DHT22;7603;49.432;11.418;2023-04-24T06:48:24;11.80;99.90
15013;DHT22;7603;49.432;11.418;2023-04-24T06:50:50;11.80;99.90
15013;DHT22;7603;49.432;11.418;2023-04-24T06:53:16;11.90;99.90
15013;DHT22;7603;49.432;11.418;2023-04-24T06:55:42;12.00;99.90
15013;DHT22;7603;49.432;11.418;2023-04-24T06:58:08;12.00;99.90
15013;DHT22;7603;49.432;11.418;2023-04-24T07:00:34;12.20;99.90
15013;DHT22;7603;49.432;11.418;2023-04-24T07:03:00;12.20;99.90
15013;DHT22;7603;49.432;11.418;2023-04-24T07:05:25;12.00;99.90
15013;DHT22;7603;49.432;11.418;2023-04-24T07:07:51;11.90;99.90
15013;DHT22;7603;49.432;11.418;2023-04-24T07:10:17;11.80;99.90
15013;DHT22;7603;49.432;11.418;2023-04-24T07:12:43;11.60;99.90
15013;DHT22;7603;49.432;11.418;2023-04-24T07:15:09;11.50;99.90
15013;DHT22;7603;49.432;11.418;2023-04-24T07:17:34;11.40;99.90
15013;DHT22;7603;49.432;11.418;2023-04-24T07:20:00;11.50;99.90
15013;DHT22;7603;49.432;11.418;2023-04-24T07:22:26;11.60;99.90
15013;DHT22;7603;49.432;11.418;2023-04-24T07:24:51;11.60;99.90
15013;DHT22;7603;49.432;11.418;2023-04-24T07:27:17;11.90;99.90
15013;DHT22;7603;49.432;11.418;2023-04-24T07:29:43;12.00;99.90
15013;DHT22;7603;49.432;11.418;2023-04-24T07:32:08;12.00;99.90
15013;DHT22;7603;49.432;11.418;2023-04-24T07:34:34;12.00;99.90
15013;DHT22;7603;49.432;11.418;2023-04-24T07:37:00;12.10;99.90
15013;DHT22;7603;49.432;11.418;2023-04-24T07:39:26;12.20;99.90
15013;DHT22;7603;49.432;11.418;2023-04-24T07:41:51;12.20;99.90
15013;DHT22;7603;49.432;11.418;2023-04-24T07:44:17;12.10;99.90
15013;DHT22;7603;49.432;11.418;2023-04-24T07:46:43;12.10;99.90
15013;DHT22;7603;49.432;11.418;2023-04-24T07:49:08;12.10;99.90
15013;DHT22;7603;49.432;11.418;2023-04-24T07:51:34;12.10;99.90
15013;DHT22;7603;49.432;11.418;2023-04-24T07:54:04;12.10;99.90
15013;DHT22;7603;49.432;11.418;2023-04-24T07:56:31;12.40;99.90
15013;DHT22;7603;49.432;11.418;2023-04-24T07:58:56;12.50;99.90
15013;DHT22;7603;49.432;11.418;2023-04-24T08:01:22;12.50;99.90
15013;DHT22;7603;49.432;11.418;2023-04-24T08:03:47;12.40;99.90
15013;DHT22;7603;49.432;11.418;2023-04-24T08:06:13;12.10;99.90
15013;DHT22;7603;49.432;11.418;2023-04-24T08:08:38;12.00;99.90
15013;DHT22;7603;49.432;11.418;2023-04-24T08:11:04;11.90;99.90
15013;DHT22;7603;49.432;11.418;2023-04-24T08:13:29;12.00;99.90
15013;DHT22;7603;49.432;11.418;2023-04-24T08:15:56;12.10;99.90
15013;DHT22;7603;49.432;11.418;2023-04-24T08:18:22;12.20;99.90
15013;DHT22;7603;49.432;11.418;2023-04-24T08:20:47;12.40;99.90
15013;DHT22;7603;49.432;11.418;2023-04-24T08:23:13;12.70;99.90
15013;DHT22;7603;49.432;11.418;2023-04-24T08:25:39;13.10;99.90
15013;DHT22;7603;49.432;11.418;2023-04-24T08:28:06;13.30;99.90
15013;DHT22;7603;49.432;11.418;2023-04-24T08:30:33;13.30;99.90
15013;DHT22;7603;49.432;11.418;2023-04-24T08:32:59;13.30;99.90
15013;DHT22;7603;49.432;11.418;2023-04-24T08:35:25;13.50;99.90
15013;DHT22;7603;49.432;11.418;2023-04-24T08:37:52;13.50;99.90
15013;DHT22;7603;49.432;11.418;2023-04-24T08:40:24;13.70;99.90
15013;DHT22;7603;49.432;11.418;2023-04-24T08:42:54;13.60;99.90
15013;DHT22;7603;49.432;11.418;2023-04-24T08:45:21;13.30;99.90
15013;DHT22;7603;49.432;11.418;2023-04-24T08:47:47;13.10;99.90
15013;DHT22;7603;49.432;11.418;2023-04-24T08:50:14;13.20;99.90
15013;DHT22;7603;49.432;11.418;2023-04-24T08:52:42;13.20;99.90
15013;DHT22;7603;49.432;11.418;2023-04-24T08:55:08;13.30;99.90
15013;DHT22;7603;49.432;11.418;2023-04-24T08:57:35;13.40;99.90
15013;DHT22;7603;49.432;11.418;2023-04-24T09:00:01;13.30;99.90
15013;DHT22;7603;49.432;11.418;2023-04-24T09:02:27;13.40;99.90
15013;DHT22;7603;49.432;11.418;2023-04-24T09:04:55;13.60;99.90
15013;DHT22;7603;49.432;11.418;2023-04-24T09:07:22;13.80;99.90
15013;DHT22;7603;49.432;11.418;2023-04-24T09:09:50;13.90;99.90
15013;DHT22;7603;49.432;11.418;2023-04-24T09:12:17;14.40;99.90
15013;DHT22;7603;49.432;11.418;2023-04-24T09:14:43;14.90;99.90
15013;DHT22;7603;49.432;11.418;2023-04-24T09:17:11;15.10;99.90
15013;DHT22;7603;49.432;11.418;2023-04-24T09:19:36;15.50;99.90
15013;DHT22;7603;49.432;11.418;2023-04-24T09:22:06;15.70;99.90
15013;DHT22;7603;49.432;11.418;2023-04-24T09:24:34;16.10;99.90
15013;DHT22;7603;49.432;11.418;2023-04-24T09:27:01;16.20;99.90
15013;DHT22;7603;49.432;11.418;2023-04-24T09:29:27;16.20;99.90
15013;DHT22;7603;49.432;11.418;2023-04-24T09:31:53;16.20;99.90
15013;DHT22;7603;49.432;11.418;2023-04-24T09:34:22;16.50;99.90
15013;DHT22;7603;49.432;11.418;2023-04-24T09:36:49;16.70;99.90
15013;DHT22;7603;49.432;11.418;2023-04-24T09:39:15;16.80;99.90
15013;DHT22;7603;49.432;11.418;2023-04-24T09:44:18;16.30;99.90
15013;DHT22;7603;49.432;11.418;2023-04-24T09:46:49;16.10;99.90
15013;DHT22;7603;49.432;11.418;2023-04-24T09:49:16;16.20;99.90
15013;DHT22;7603;49.432;11.418;2023-04-24T09:51:42;16.00;99.90
15013;DHT22;7603;49.432;11.418;2023-04-24T09:54:14;15.80;99.90
15013;DHT22;7603;49.432;11.418;2023-04-24T09:56:45;15.60;99.90
15013;DHT22;7603;49.432;11.418;2023-04-24T09:59:12;15.60;99.90
15013;DHT22;7603;49.432;11.418;2023-04-24T10:01:38;15.50;99.90
15013;DHT22;7603;49.432;11.418;2023-04-24T10:04:24;15.20;99.90
15013;DHT22;7603;49.432;11.418;2023-04-24T10:06:51;14.90;99.90
15013;DHT22;7603;49.432;11.418;2023-04-24T10:09:19;14.60;99.90
15013;DHT22;7603;49.432;11.418;2023-04-24T10:11:47;14.70;99.90
15013;DHT22;7603;49.432;11.418;2023-04-24T10:14:15;15.00;99.90
15013;DHT22;7603;49.432;11.418;2023-04-24T10:16:41;15.30;99.90
15013;DHT22;7603;49.432;11.418;2023-04-24T10:19:07;15.50;99.90
15013;DHT22;7603;49.432;11.418;2023-04-24T10:21:34;15.70;99.90
15013;DHT22;7603;49.432;11.418;2023-04-24T10:24:01;15.40;99.90
15013;DHT22;7603;49.432;11.418;2023-04-24T10:26:29;15.10;99.90
15013;DHT22;7603;49.432;11.418;2023-04-24T10:28:57;14.80;99.90
15013;DHT22;7603;49.432;11.418;2023-04-24T10:31:23;14.60;99.90
15013;DHT22;7603;49.432;11.418;2023-04-24T10:33:50;14.40;99.90
15013;DHT22;7603;49.432;11.418;2023-04-24T10:36:16;14.20;99.90
15013;DHT22;7603;49.432;11.418;2023-04-24T10:38:45;14.40;99.90
15013;DHT22;7603;49.432;11.418;2023-04-24T10:41:12;14.60;99.90
15013;DHT22;7603;49.432;11.418;2023-04-24T10:43:45;15.60;99.90
15013;DHT22;7603;49.432;11.418;2023-04-24T10:46:18;17.20;99.90
15013;DHT22;7603;49.432;11.418;2023-04-24T10:48:54;18.00;95.90
15013;DHT22;7603;49.432;11.418;2023-04-24T10:51:22;17.70;94.20
15013;DHT22;7603;49.432;11.418;2023-04-24T10:53:50;17.20;92.20
15013;DHT22;7603;49.432;11.418;2023-04-24T10:56:16;17.10;93.10
15013;DHT22;7603;49.432;11.418;2023-04-24T10:58:45;18.00;92.20
15013;DHT22;7603;49.432;11.418;2023-04-24T11:03:57;20.70;83.30
15013;DHT22;7603;49.432;11.418;2023-04-24T11:06:30;21.40;76.90
15013;DHT22;7603;49.432;11.418;2023-04-24T11:09:11;21.40;60.70
15013;DHT22;7603;49.432;11.418;2023-04-24T11:11:45;21.20;61.20
15013;DHT22;7603;49.432;11.418;2023-04-24T11:14:14;21.60;56.30
15013;DHT22;7603;49.432;11.418;2023-04-24T11:16:53;21.50;56.20
15013;DHT22;7603;49.432;11.418;2023-04-24T11:19:24;21.30;55.80
15013;DHT22;7603;49.432;11.418;2023-04-24T11:21:59;20.20;56.20
15013;DHT22;7603;49.432;11.418;2023-04-24T11:32:28;17.90;74.50
15013;DHT22;7603;49.432;11.418;2023-04-24T11:34:58;17.60;74.90
15013;DHT22;7603;49.432;11.418;2023-04-24T11:37:26;17.50;75.30
15013;DHT22;7603;49.432;11.418;2023-04-24T11:39:53;17.00;74.70
15013;DHT22;7603;49.432;11.418;2023-04-24T11:42:21;16.40;76.10
15013;DHT22;7603;49.432;11.418;2023-04-24T11:44:47;16.10;77.10
15013;DHT22;7603;49.432;11.418;2023-04-24T11:47:14;16.00;77.60
15013;DHT22;7603;49.432;11.418;2023-04-24T11:49:40;16.00;75.80
15013;DHT22;7603;49.432;11.418;2023-04-24T11:52:05;15.80;77.10
15013;DHT22;7603;49.432;11.418;2023-04-24T11:54:31;15.60;76.50
15013;DHT22;7603;49.432;11.418;2023-04-24T11:56:57;15.70;75.40
15013;DHT22;7603;49.432;11.418;2023-04-24T11:59:23;15.90;74.70
15013;DHT22;7603;49.432;11.418;2023-04-24T12:01:49;16.40;73.40
15013;DHT22;7603;49.432;11.418;2023-04-24T12:04:16;17.20;72.10
15013;DHT22;7603;49.432;11.418;2023-04-24T12:07:03;18.40;67.80
15013;DHT22;7603;49.432;11.418;2023-04-24T12:09:55;20.40;63.10
15013;DHT22;7603;49.432;11.418;2023-04-24T12:12:25;22.40;56.00
15013;DHT22;7603;49.432;11.418;2023-04-24T12:14:58;22.70;52.70
15013;DHT22;7603;49.432;11.418;2023-04-24T12:17:32;21.90;52.70
15013;DHT22;7603;49.432;11.418;2023-04-24T12:20:02;20.40;54.10
15013;DHT22;7603;49.432;11.418;2023-04-24T12:25:18;17.90;61.10
15013;DHT22;7603;49.432;11.418;2023-04-24T12:27:45;16.80;64.60
15013;DHT22;7603;49.432;11.418;2023-04-24T12:30:15;15.90;67.50
15013;DHT22;7603;49.432;11.418;2023-04-24T12:32:46;15.30;69.80
15013;DHT22;7603;49.432;11.418;2023-04-24T12:35:12;14.90;72.40
15013;DHT22;7603;49.432;11.418;2023-04-24T12:37:38;14.70;75.00
15013;DHT22;7603;49.432;11.418;2023-04-24T12:40:07;14.50;73.70
15013;DHT22;7603;49.432;11.418;2023-04-24T12:42:34;14.10;71.50
15013;DHT22;7603;49.432;11.418;2023-04-24T12:45:05;14.30;73.30
15013;DHT22;7603;49.432;11.418;2023-04-24T12:47:32;14.60;72.20
15013;DHT22;7603;49.432;11.418;2023-04-24T12:49:58;15.10;71.50
15013;DHT22;7603;49.432;11.418;2023-04-24T12:52:26;15.70;70.50
15013;DHT22;7603;49.432;11.418;2023-04-24T12:54:56;16.40;69.20
15013;DHT22;7603;49.432;11.418;2023-04-24T12:57:23;16.80;68.60
15013;DHT22;7603;49.432;11.418;2023-04-24T12:59:48;17.00;66.70
15013;DHT22;7603;49.432;11.418;2023-04-24T13:02:14;16.90;66.50
15013;DHT22;7603;49.432;11.418;2023-04-24T13:04:44;16.40;67.80
15013;DHT22;7603;49.432;11.418;2023-04-24T13:07:10;16.10;70.70
15013;DHT22;7603;49.432;11.418;2023-04-24T13:09:35;16.00;70.90
15013;DHT22;7603;49.432;11.418;2023-04-24T13:12:01;15.80;71.20
15013;DHT22;7603;49.432;11.418;2023-04-24T13:14:27;15.90;70.00
15013;DHT22;7603;49.432;11.418;2023-04-24T13:16:52;15.80;69.60
15013;DHT22;7603;49.432;11.418;2023-04-24T13:19:18;16.00;70.40
15013;DHT22;7603;49.432;11.418;2023-04-24T13:21:44;16.10;68.60
15013;DHT22;7603;49.432;11.418;2023-04-24T13:24:10;16.00;68.40
15013;DHT22;7603;49.432;11.418;2023-04-24T13:26:36;16.10;67.70
15013;DHT22;7603;49.432;11.418;2023-04-24T13:29:02;16.30;67.90
15013;DHT22;7603;49.432;11.418;2023-04-24T13:31:29;16.70;67.80
15013;DHT22;7603;49.432;11.418;2023-04-24T13:33:54;16.90;67.70
15013;DHT22;7603;49.432;11.418;2023-04-24T13:36:20;16.70;67.00
15013;DHT22;7603;49.432;11.418;2023-04-24T13:38:45;16.50;67.70
15013;DHT22;7603;49.432;11.418;2023-04-24T13:41:12;16.30;68.20
15013;DHT22;7603;49.432;11.418;2023-04-24T13:43:37;16.30;67.60
15013;DHT22;7603;49.432;11.418;2023-04-24T13:46:03;16.60;67.10
15013;DHT22;7603;49.432;11.418;2023-04-24T13:48:29;17.00;66.70
15013;DHT22;7603;49.432;11.418;2023-04-24T13:50:55;17.20;66.80
15013;DHT22;7603;49.432;11.418;2023-04-24T13:53:21;16.90;65.80
15013;DHT22;7603;49.432;11.418;2023-04-24T13:55:47;16.40;67.50
15013;DHT22;7603;49.432;11.418;2023-04-24T13:58:12;15.90;71.10
15013;DHT22;7603;49.432;11.418;2023-04-24T14:00:38;15.30;73.10
15013;DHT22;7603;49.432;11.418;2023-04-24T14:03:04;14.40;99.90
15013;DHT22;7603;49.432;11.418;2023-04-24T14:05:30;13.40;99.90
15013;DHT22;7603;49.432;11.418;2023-04-24T14:07:55;12.50;99.90
15013;DHT22;7603;49.432;11.418;2023-04-24T14:10:21;11.90;99.90
15013;DHT22;7603;49.432;11.418;2023-04-24T14:12:46;11.50;99.90
15013;DHT22;7603;49.432;11.418;2023-04-24T14:15:12;11.40;99.90
15013;DHT22;7603;49.432;11.418;2023-04-24T14:17:39;11.40;99.90
15013;DHT22;7603;49.432;11.418;2023-04-24T14:20:05;11.40;99.90
15013;DHT22;7603;49.432;11.418;2023-04-24T14:22:31;11.50;99.90
15013;DHT22;7603;49.432;11.418;2023-04-24T14:24:56;11.50;99.90
15013;DHT22;7603;49.432;11.418;2023-04-24T14:27:23;11.50;99.90
15013;DHT22;7603;49.432;11.418;2023-04-24T14:29:49;11.40;99.90
15013;DHT22;7603;49.432;11.418;2023-04-24T14:32:14;11.50;99.90
15013;DHT22;7603;49.432;11.418;2023-04-24T14:34:40;11.60;99.90
15013;DHT22;7603;49.432;11.418;2023-04-24T14:37:07;11.80;99.90
15013;DHT22;7603;49.432;11.418;2023-04-24T14:39:33;12.20;99.90
15013;DHT22;7603;49.432;11.418;2023-04-24T14:41:58;12.90;99.90
15013;DHT22;7603;49.432;11.418;2023-04-24T14:44:24;13.60;99.90
15013;DHT22;7603;49.432;11.418;2023-04-24T14:46:50;15.10;95.80
15013;DHT22;7603;49.432;11.418;2023-04-24T14:49:16;17.10;90.20
15013;DHT22;7603;49.432;11.418;2023-04-24T14:51:41;18.30;79.50
15013;DHT22;7603;49.432;11.418;2023-04-24T14:54:08;18.50;72.40
15013;DHT22;7603;49.432;11.418;2023-04-24T14:56:33;18.60;70.40
15013;DHT22;7603;49.432;11.418;2023-04-24T14:58:59;19.60;68.40
15013;DHT22;7603;49.432;11.418;2023-04-24T15:01:25;19.80;62.10
15013;DHT22;7603;49.432;11.418;2023-04-24T15:03:50;19.10;63.90
15013;DHT22;7603;49.432;11.418;2023-04-24T15:06:16;18.60;64.50
15013;DHT22;7603;49.432;11.418;2023-04-24T15:08:41;18.60;64.90
15013;DHT22;7603;49.432;11.418;2023-04-24T15:11:08;18.30;64.90
15013;DHT22;7603;49.432;11.418;2023-04-24T15:13:34;18.10;67.00
15013;DHT22;7603;49.432;11.418;2023-04-24T15:15:59;17.50;68.10
15013;DHT22;7603;49.432;11.418;2023-04-24T15:18:25;17.10;70.30
15013;DHT22;7603;49.432;11.418;2023-04-24T15:20:53;16.50;72.10
15013;DHT22;7603;49.432;11.418;2023-04-24T15:23:18;16.30;75.00
15013;DHT22;7603;49.432;11.418;2023-04-24T15:25:44;17.50;77.00
15013;DHT22;7603;49.432;11.418;2023-04-24T15:28:09;18.60;68.80
15013;DHT22;7603;49.432;11.418;2023-04-24T15:30:35;18.30;65.20
15013;DHT22;7603;49.432;11.418;2023-04-24T15:33:01;17.70;65.50
15013;DHT22;7603;49.432;11.418;2023-04-24T15:35:27;16.90;67.10
15013;DHT22;7603;49.432;11.418;2023-04-24T15:37:53;16.30;68.50
15013;DHT22;7603;49.432;11.418;2023-04-24T15:40:18;15.90;69.20
15013;DHT22;7603;49.432;11.418;2023-04-24T15:42:45;15.60;70.70
15013;DHT22;7603;49.432;11.418;2023-04-24T15:45:11;15.10;72.40
15013;DHT22;7603;49.432;11.418;2023-04-24T15:47:37;15.10;75.00
15013;DHT22;7603;49.432;11.418;2023-04-24T15:50:04;15.30;74.70
15013;DHT22;7603;49.432;11.418;2023-04-24T15:52:29;15.50;74.40